Time;durP1;ratioP1;P1;durP2;ratioP2;P2;SDS_P1;SDS_P2;PMS_P1;PMS_P2;Temp;Humidity;BMP_temperature;BMP_pressure;BME280_temperature;BME280_humidity;BME280_pressure;Samples;Min_cycle;Max_cycle;Signal;HPM_P1;HPM_P2
2021/12/15 00:01:59;;;;;;;25.87;15.27;;;;;;;2.20;100.00;92604.66;5038169;28;20550;-79
2021/12/15 00:04:28;;;;;;;25.13;14.23;;;;;;;1.95;100.00;92579.22;5039185;28;20654;-79
2021/12/15 00:06:55;;;;;;;21.37;13.03;;;;;;;2.41;100.00;92661.75;5038674;28;20461;-78
2021/12/15 00:09:22;;;;;;;15.70;13.60;;;;;;;2.39;100.00;92668.41;5039058;28;20501;-78
2021/12/15 00:11:50;;;;;;;18.30;12.10;;;;;;;2.37;100.00;92671.75;5040239;28;20581;-79
2021/12/15 00:14:20;;;;;;;14.03;9.60;;;;;;;2.37;100.00;92661.78;5038524;28;20231;-78
2021/12/15 00:16:50;;;;;;;17.80;11.77;;;;;;;2.29;100.00;92658.56;5038702;28;20599;-78
2021/12/15 00:19:18;;;;;;;14.30;12.30;;;;;;;2.38;100.00;92669.25;5038497;28;20622;-78
2021/12/15 00:21:45;;;;;;;24.33;13.10;;;;;;;1.91;100.00;92599.19;5038688;28;20470;-78
2021/12/15 00:24:13;;;;;;;27.27;13.43;;;;;;;2.04;100.00;92635.56;5041186;28;20574;-78
2021/12/15 00:26:42;;;;;;;18.10;10.17;;;;;;;1.76;100.00;92587.72;5039430;28;20563;-79
2021/12/15 00:29:09;;;;;;;9.53;7.50;;;;;;;2.02;100.00;92639.75;5038807;28;20231;-78
2021/12/15 00:31:37;;;;;;;13.43;11.83;;;;;;;2.01;100.00;92638.94;5039138;28;20224;-78
2021/12/15 00:34:08;;;;;;;10.70;9.63;;;;;;;2.25;100.00;92667.75;5040764;28;20680;-78
2021/12/15 00:36:36;;;;;;;12.43;9.83;;;;;;;2.09;100.00;92657.09;5050403;28;20511;-79
2021/12/15 00:39:06;;;;;;;12.57;10.33;;;;;;;2.22;100.00;92672.75;5038372;28;20611;-79
2021/12/15 00:41:34;;;;;;;12.13;10.40;;;;;;;2.05;100.00;92649.69;5039001;28;20581;-79
2021/12/15 00:44:02;;;;;;;11.43;9.43;;;;;;;2.13;100.00;92667.06;5038379;28;20458;-78
2021/12/15 00:46:30;;;;;;;22.60;12.03;;;;;;;2.01;100.00;92643.91;5038038;28;20498;-79
2021/12/15 00:48:58;;;;;;;20.07;9.73;;;;;;;2.03;100.00;92642.22;5039842;28;20552;-79
2021/12/15 00:51:27;;;;;;;11.07;10.03;;;;;;;1.48;100.00;92577.19;5044895;28;20582;-79
2021/12/15 00:53:55;;;;;;;10.20;9.40;;;;;;;1.90;100.00;92647.34;5042579;28;20222;-79
2021/12/15 00:56:22;;;;;;;15.83;11.10;;;;;;;1.54;100.00;92598.72;5038718;28;20531;-79
2021/12/15 00:58:50;;;;;;;47.40;14.87;;;;;;;1.72;100.00;92617.63;5038919;28;20643;-79
2021/12/15 01:01:18;;;;;;;9.47;8.60;;;;;;;1.39;100.00;92562.38;5037923;28;20281;-79
2021/12/15 01:03:46;;;;;;;10.63;6.63;;;;;;;1.80;100.00;92655.75;5037968;28;20578;-78
2021/12/15 01:06:17;;;;;;;18.30;9.13;;;;;;;1.48;100.00;92624.50;5039086;28;20586;-79
2021/12/15 01:08:52;;;;;;;12.23;9.33;;;;;;;1.75;100.00;92664.94;5037769;28;20275;-79
2021/12/15 01:11:28;;;;;;;10.93;8.03;;;;;;;1.64;100.00;92665.00;5038738;28;20198;-79
2021/12/15 01:19:51;;;;;;;20.50;7.77;;;;;;;1.48;100.00;92641.09;5038185;28;20644;-79
2021/12/15 01:22:23;;;;;;;8.67;7.83;;;;;;;1.32;100.00;92609.72;5038658;28;20541;-78
2021/12/15 01:24:53;;;;;;;8.43;7.77;;;;;;;1.28;100.00;92594.00;5038196;28;20190;-79
2021/12/15 01:27:22;;;;;;;15.03;7.17;;;;;;;1.39;100.00;92617.13;5037703;28;20495;-78
2021/12/15 01:29:49;;;;;;;8.63;7.97;;;;;;;1.72;100.00;92672.41;5037253;28;20215;-78
2021/12/15 01:32:17;;;;;;;11.37;8.50;;;;;;;1.34;100.00;92621.31;5037273;28;20582;-79
2021/12/15 01:34:44;;;;;;;8.30;7.70;;;;;;;1.50;100.00;92649.38;5037437;28;20631;-78
2021/12/15 01:37:12;;;;;;;8.30;7.50;;;;;;;1.31;100.00;92616.34;5037680;28;20559;-79
2021/12/15 01:39:40;;;;;;;20.63;11.60;;;;;;;1.57;100.00;92648.50;5036518;28;20551;-79
2021/12/15 01:42:09;;;;;;;6.83;6.23;;;;;;;1.54;100.00;92644.34;5038342;28;20191;-78
2021/12/15 01:47:21;;;;;;;10.40;7.10;;;;;;;1.51;100.00;92666.81;5037859;28;20197;-78
2021/12/15 01:49:51;;;;;;;10.57;8.37;;;;;;;1.08;100.00;92604.09;5036899;28;20264;-79
2021/12/15 01:52:22;;;;;;;19.70;9.20;;;;;;;1.17;100.00;92623.09;5036675;28;20549;-79
2021/12/15 01:54:52;;;;;;;17.90;9.87;;;;;;;1.21;100.00;92650.44;5037330;28;20521;-78
2021/12/15 01:57:24;;;;;;;15.50;9.00;;;;;;;0.98;100.00;92609.97;5037299;28;20446;-78
2021/12/15 01:59:52;;;;;;;16.23;7.53;;;;;;;1.22;100.00;92628.88;5037386;28;20540;-78
2021/12/15 02:02:20;;;;;;;11.90;8.43;;;;;;;1.53;100.00;92647.69;5036795;28;20198;-78
2021/12/15 02:04:48;;;;;;;8.00;7.47;;;;;;;1.24;100.00;92594.84;5037265;28;20590;-78
2021/12/15 02:07:18;;;;;;;9.00;8.50;;;;;;;1.78;100.00;92664.91;5037689;28;20485;-79
2021/12/15 02:12:36;;;;;;;31.30;10.33;;;;;;;1.69;100.00;92632.63;5037605;28;20596;-78
2021/12/15 02:15:09;;;;;;;11.53;10.63;;;;;;;1.90;100.00;92670.59;5036910;28;20674;-78
2021/12/15 02:17:37;;;;;;;13.23;9.90;;;;;;;1.82;100.00;92652.41;5037248;28;20257;-78
2021/12/15 02:20:07;;;;;;;9.73;8.77;;;;;;;1.69;100.00;92630.94;5036365;28;20608;-79
2021/12/15 02:22:36;;;;;;;9.67;8.07;;;;;;;1.44;100.00;92580.56;5036587;28;20557;-78
2021/12/15 02:25:07;;;;;;;8.23;7.53;;;;;;;1.90;100.00;92665.63;5036114;28;20606;-78
2021/12/15 02:27:35;;;;;;;10.40;8.80;;;;;;;1.86;100.00;92659.00;5037012;28;20556;-78
2021/12/15 02:30:19;;;;;;;16.30;7.50;;;;;;;1.78;100.00;92663.22;5036377;28;20587;-78
2021/12/15 02:32:59;;;;;;;10.17;7.17;;;;;;;1.31;100.00;92611.38;5036508;28;20493;-78
2021/12/15 02:38:13;;;;;;;7.40;6.83;;;;;;;1.24;100.00;92632.16;5036329;28;20214;-78
2021/12/15 02:40:40;;;;;;;9.73;6.13;;;;;;;1.12;100.00;92625.63;5035715;28;20203;-78
2021/12/15 02:43:08;;;;;;;11.40;7.30;;;;;;;1.38;100.00;92665.22;5036706;28;20588;-78
2021/12/15 02:45:35;;;;;;;9.43;5.17;;;;;;;1.04;100.00;92614.06;5037770;28;20573;-78
2021/12/15 02:48:03;;;;;;;4.53;4.23;;;;;;;1.25;100.00;92643.75;5049976;28;20241;-78
2021/12/15 02:50:31;;;;;;;10.07;6.40;;;;;;;1.34;100.00;92663.63;5056037;28;20592;-78
2021/12/15 02:52:59;;;;;;;7.27;5.20;;;;;;;1.32;100.00;92660.31;5042693;28;20494;-78
2021/12/15 02:55:29;;;;;;;14.13;6.50;;;;;;;1.13;100.00;92624.78;5036428;28;20676;-78
2021/12/15 02:57:59;;;;;;;9.20;5.63;;;;;;;1.32;100.00;92665.28;5036625;28;20462;-78
2021/12/15 03:00:34;;;;;;;6.80;6.40;;;;;;;1.23;100.00;92672.81;5035769;28;20202;-78
2021/12/15 03:03:45;;;;;;;4.00;3.63;;;;;;;1.06;100.00;92642.25;5036239;28;20605;-78
2021/12/15 03:06:16;;;;;;;4.73;4.33;;;;;;;1.24;100.00;92671.97;5037736;28;20480;-78
2021/12/15 03:08:54;;;;;;;6.03;5.53;;;;;;;1.22;100.00;92669.50;5035823;28;20639;-78
2021/12/15 03:16:55;;;;;;;6.27;4.83;;;;;;;0.70;100.00;92567.06;5035869;28;20519;-78
2021/12/15 03:19:22;;;;;;;5.10;3.73;;;;;;;0.86;100.00;92594.31;5037117;28;20486;-78
2021/12/15 03:21:49;;;;;;;9.07;5.40;;;;;;;1.19;100.00;92644.63;5035622;28;20620;-78
2021/12/15 03:24:20;;;;;;;5.33;4.97;;;;;;;1.33;100.00;92671.91;5036067;28;20533;-78
2021/12/15 03:26:57;;;;;;;6.67;5.57;;;;;;;1.20;100.00;92643.81;5035722;28;20562;-78
2021/12/15 03:35:05;;;;;;;10.73;5.17;;;;;;;0.77;100.00;92586.09;5036318;28;20232;-78
2021/12/15 03:37:38;;;;;;;7.00;6.37;;;;;;;1.34;100.00;92678.53;5039502;28;20457;-78
2021/12/15 03:40:10;;;;;;;4.00;3.80;;;;;;;0.91;100.00;92643.16;5039176;28;20606;-78
2021/12/15 03:42:44;;;;;;;8.33;5.87;;;;;;;0.81;100.00;92649.88;5041202;28;20525;-78
2021/12/15 03:45:15;;;;;;;15.43;5.67;;;;;;;1.01;100.00;92672.16;5039423;28;20535;-78
2021/12/15 03:47:46;;;;;;;5.07;4.77;;;;;;;1.04;100.00;92673.78;5039844;28;20594;-78
2021/12/15 03:50:19;;;;;;;21.10;6.87;;;;;;;1.18;100.00;92677.81;5038995;28;20589;-78
2021/12/15 03:52:48;;;;;;;6.07;5.73;;;;;;;0.81;100.00;92631.63;5039171;28;20214;-78
2021/12/15 03:55:18;;;;;;;7.37;6.03;;;;;;;0.66;100.00;92610.19;5039718;28;20489;-78
2021/12/15 03:57:47;;;;;;;4.50;4.40;;;;;;;0.61;100.00;92601.13;5039686;28;20232;-78
2021/12/15 04:00:17;;;;;;;9.13;4.93;;;;;;;0.91;100.00;92672.19;5039441;28;20491;-79
2021/12/15 04:02:45;;;;;;;6.23;5.93;;;;;;;0.93;100.00;92683.78;5039794;28;20462;-78
2021/12/15 04:05:15;;;;;;;5.10;4.73;;;;;;;0.83;100.00;92665.63;5039912;28;20601;-78
2021/12/15 04:07:42;;;;;;;28.50;5.43;;;;;;;0.81;100.00;92672.25;5039716;28;20186;-78
2021/12/15 04:10:15;;;;;;;6.77;6.20;;;;;;;0.87;100.00;92700.41;5050311;28;20504;-78
2021/12/15 04:12:43;;;;;;;6.17;3.57;;;;;;;0.64;100.00;92693.88;5040433;28;20637;-78
2021/12/15 04:15:27;;;;;;;12.73;4.47;;;;;;;0.30;100.00;92647.66;5039673;28;20609;-78
2021/12/15 04:17:57;;;;;;;8.73;6.27;;;;;;;0.62;100.00;92692.25;5039654;28;20629;-78
2021/12/15 04:20:28;;;;;;;11.40;5.50;;;;;;;0.30;100.00;92685.75;5039404;28;20524;-79
2021/12/15 04:22:56;;;;;;;5.47;5.00;;;;;;;0.20;100.00;92683.28;5040057;28;20573;-78
2021/12/15 04:25:28;;;;;;;10.90;6.30;;;;;;;-0.32;100.00;92608.94;5039479;28;20439;-77
2021/12/15 04:27:58;;;;;;;12.50;8.60;;;;;;;-0.21;100.00;92642.00;5040244;28;20468;-79
2021/12/15 04:30:29;;;;;;;21.13;8.57;;;;;;;-0.28;100.00;92642.84;5048605;28;20566;-79
2021/12/15 04:33:01;;;;;;;13.23;9.67;;;;;;;0.09;100.00;92702.38;5038808;28;20442;-78
2021/12/15 04:35:28;;;;;;;53.57;27.57;;;;;;;0.15;100.00;92692.41;5039175;28;20225;-78
2021/12/15 04:37:56;;;;;;;17.63;12.30;;;;;;;0.09;100.00;92657.66;5040310;28;20489;-78
2021/12/15 04:40:24;;;;;;;8.13;7.43;;;;;;;0.36;100.00;92698.13;5038928;28;20553;-78
2021/12/15 04:42:52;;;;;;;5.37;4.87;;;;;;;0.12;100.00;92655.16;5038738;28;20484;-78
2021/12/15 04:45:21;;;;;;;26.43;21.33;;;;;;;0.12;100.00;92637.78;5038865;28;20629;-79
2021/12/15 04:47:51;;;;;;;77.17;36.80;;;;;;;0.45;100.00;92684.03;5038661;28;20628;-78
2021/12/15 04:50:21;;;;;;;17.33;10.73;;;;;;;0.05;100.00;92653.53;5038050;28;20194;-78
2021/12/15 04:52:48;;;;;;;8.90;7.83;;;;;;;0.42;100.00;92712.19;5039043;28;20558;-78
2021/12/15 04:55:16;;;;;;;13.20;6.30;;;;;;;0.00;100.00;92622.09;5038518;28;20488;-78
2021/12/15 04:57:44;;;;;;;12.47;8.67;;;;;;;0.61;100.00;92711.31;5037489;28;20477;-79
2021/12/15 05:00:17;;;;;;;19.40;9.40;;;;;;;-0.14;100.00;92627.94;5038028;28;20650;-79
2021/12/15 05:02:44;;;;;;;9.57;7.50;;;;;;;0.30;100.00;92692.34;5036796;28;20642;-79
2021/12/15 05:05:13;;;;;;;7.30;6.90;;;;;;;0.35;100.00;92700.63;5037726;28;20190;-79
2021/12/15 05:07:40;;;;;;;9.03;8.33;;;;;;;0.14;100.00;92654.34;5037243;28;20477;-79
2021/12/15 05:10:09;;;;;;;15.97;10.60;;;;;;;0.57;100.00;92702.19;5038393;28;20586;-79
2021/12/15 05:12:37;;;;;;;14.23;11.10;;;;;;;0.64;100.00;92716.25;5037079;28;20550;-79
2021/12/15 05:15:05;;;;;;;47.13;23.10;;;;;;;0.46;100.00;92708.03;5038610;28;20516;-81
2021/12/15 05:17:33;;;;;;;20.70;14.43;;;;;;;0.33;100.00;92690.72;5037700;28;20485;-74
2021/12/15 05:20:03;;;;;;;15.20;12.63;;;;;;;0.49;100.00;92718.81;5043052;28;20193;-76
2021/12/15 05:22:34;;;;;;;20.53;13.53;;;;;;;0.20;100.00;92656.78;5040061;28;20469;-77
2021/12/15 05:25:02;;;;;;;42.07;23.60;;;;;;;0.65;100.00;92724.53;5041838;28;20500;-77
2021/12/15 05:27:29;;;;;;;23.93;15.50;;;;;;;0.44;100.00;92700.59;5039694;28;20583;-76
2021/12/15 05:29:57;;;;;;;24.70;13.10;;;;;;;0.37;100.00;92719.66;5039599;28;20582;-77
2021/12/15 05:32:26;;;;;;;20.93;16.23;;;;;;;0.33;100.00;92715.56;5047344;28;20580;-75
2021/12/15 05:34:58;;;;;;;24.10;12.67;;;;;;;0.55;100.00;92727.91;5039805;28;20589;-76
2021/12/15 05:37:26;;;;;;;17.93;14.60;;;;;;;0.69;100.00;92736.94;5039748;28;20469;-77
2021/12/15 05:39:56;;;;;;;21.03;18.83;;;;;;;0.79;100.00;92737.72;5038946;28;20466;-77
2021/12/15 05:42:25;;;;;;;24.23;16.33;;;;;;;0.62;100.00;92700.50;5038195;28;20195;-76
2021/12/15 05:44:54;;;;;;;30.97;15.27;;;;;;;0.81;100.00;92736.91;5045311;28;20577;-75
2021/12/15 05:47:22;;;;;;;9.37;8.40;;;;;;;0.80;100.00;92719.50;5047605;28;20495;-76
2021/12/15 05:49:50;;;;;;;11.40;10.10;;;;;;;0.97;100.00;92742.63;5051531;28;20503;-76
2021/12/15 05:52:18;;;;;;;21.13;14.03;;;;;;;1.14;100.00;92749.97;5042846;28;20597;-75
2021/12/15 05:54:45;;;;;;;21.00;11.83;;;;;;;1.00;100.00;92706.97;5038920;28;20580;-78
2021/12/15 05:57:14;;;;;;;31.73;17.27;;;;;;;0.91;100.00;92690.41;5043533;28;20202;-77
2021/12/15 05:59:41;;;;;;;37.43;17.20;;;;;;;1.21;100.00;92737.50;5040603;28;20532;-77
2021/12/15 06:02:09;;;;;;;27.10;18.53;;;;;;;1.26;100.00;92727.53;5043066;28;20476;-76
2021/12/15 06:04:37;;;;;;;20.27;12.80;;;;;;;1.40;100.00;92738.22;5040412;28;20498;-79
2021/12/15 06:07:15;;;;;;;16.30;11.53;;;;;;;1.28;100.00;92692.69;5036813;28;20210;-77
2021/12/15 06:10:03;;;;;;;11.87;10.33;;;;;;;1.57;100.00;92735.63;5043847;28;20505;-77
2021/12/15 06:12:33;;;;;;;10.87;9.97;;;;;;;1.13;100.00;92639.69;5036860;28;20220;-76
2021/12/15 06:15:00;;;;;;;10.57;8.70;;;;;;;1.50;100.00;92702.47;5037377;28;20590;-76
2021/12/15 06:17:27;;;;;;;9.63;6.47;;;;;;;1.42;100.00;92671.00;5038646;28;20270;-76
2021/12/15 06:19:55;;;;;;;19.60;15.13;;;;;;;1.83;100.00;92736.25;5038890;28;20707;-76
2021/12/15 06:22:26;;;;;;;26.00;14.53;;;;;;;1.82;100.00;92737.06;5041124;28;20229;-76
2021/12/15 06:24:55;;;;;;;13.33;11.97;;;;;;;1.74;100.00;92708.09;5038685;28;20596;-79
2021/12/15 06:27:23;;;;;;;18.30;12.73;;;;;;;1.93;100.00;92725.34;5039498;28;20610;-79
2021/12/15 06:29:54;;;;;;;35.63;16.37;;;;;;;1.90;100.00;92722.91;5038448;28;20233;-78
2021/12/15 06:32:22;;;;;;;20.80;13.03;;;;;;;1.97;100.00;92739.41;5037084;28;20208;-77
2021/12/15 06:34:49;;;;;;;12.20;10.60;;;;;;;1.86;100.00;92741.19;5038960;28;20566;-78
2021/12/15 06:37:17;;;;;;;13.23;8.30;;;;;;;1.89;100.00;92735.38;5038834;28;20338;-78
2021/12/15 06:39:44;;;;;;;13.10;11.77;;;;;;;1.95;100.00;92738.63;5040257;28;20622;-76
2021/12/15 06:42:12;;;;;;;20.37;11.43;;;;;;;2.02;100.00;92744.38;5038576;28;20603;-78
2021/12/15 06:44:41;;;;;;;13.77;12.40;;;;;;;2.10;100.00;92737.66;5038063;28;20454;-76
2021/12/15 06:58:13;;;;;;;10.80;9.70;;;;;;;2.57;100.00;92769.59;5039461;28;20674;-78
2021/12/15 07:00:45;;;;;;;16.30;10.57;;;;;;;2.54;100.00;92759.66;5038787;28;20581;-78
2021/12/15 07:03:16;;;;;;;9.90;4.77;;;;;;;2.31;100.00;92729.16;5038383;28;20473;-78
2021/12/15 07:05:45;;;;;;;4.03;3.53;;;;;;;2.03;100.00;92681.25;5045808;28;20464;-79
2021/12/15 07:08:13;;;;;;;8.73;4.37;;;;;;;2.72;100.00;92769.44;5035658;28;20937;-80
2021/12/15 07:10:46;;;;;;;6.60;5.37;;;;;;;2.36;100.00;92700.84;5027291;28;20549;-79
2021/12/15 07:13:16;;;;;;;6.67;6.07;;;;;;;2.82;100.00;92775.13;5030773;28;20591;-79
2021/12/15 07:15:45;;;;;;;13.80;11.53;;;;;;;2.41;100.00;92729.06;5022512;28;20697;-78
2021/12/15 07:18:25;;;;;;;16.53;13.57;;;;;;;2.93;100.00;92803.28;5033982;28;20385;-79
2021/12/15 07:21:04;;;;;;;36.97;19.23;;;;;;;2.50;100.00;92746.41;5025858;28;20204;-80
2021/12/15 07:23:31;;;;;;;25.03;19.70;;;;;;;2.80;100.00;92807.59;5021013;28;20197;-81
2021/12/15 07:25:59;;;;;;;12.97;10.17;;;;;;;2.72;100.00;92806.84;5022433;28;20569;-78
2021/12/15 07:28:26;;;;;;;4.87;3.17;;;;;;;2.08;99.13;92730.19;5021152;28;20456;-79
2021/12/15 07:30:54;;;;;;;5.87;5.47;;;;;;;2.42;96.21;92769.78;5024474;28;20582;-78
2021/12/15 07:33:24;;;;;;;6.33;5.93;;;;;;;2.88;96.70;92814.97;5027495;28;20660;-80
2021/12/15 07:35:51;;;;;;;11.50;8.50;;;;;;;2.89;96.64;92814.16;5024385;28;20325;-79
2021/12/15 07:38:18;;;;;;;10.87;6.63;;;;;;;2.96;96.55;92795.78;5027093;28;20497;-79
2021/12/15 07:40:49;;;;;;;10.00;9.03;;;;;;;2.88;97.42;92765.09;5021006;28;20484;-79
2021/12/15 07:43:24;;;;;;;8.00;7.43;;;;;;;3.20;98.08;92819.63;5023062;28;20489;-79
2021/12/15 07:45:55;;;;;;;9.63;8.90;;;;;;;3.27;98.46;92816.19;5030467;28;20486;-77
2021/12/15 07:48:25;;;;;;;8.27;7.23;;;;;;;3.28;99.39;92823.66;5032626;28;20585;-81
2021/12/15 07:50:57;;;;;;;8.13;6.50;;;;;;;3.40;98.45;92834.34;5032232;28;20478;-78
2021/12/15 07:53:24;;;;;;;6.97;6.47;;;;;;;3.26;98.34;92807.06;5027414;28;20492;-78
2021/12/15 07:55:53;;;;;;;5.00;3.87;;;;;;;3.29;96.98;92824.50;5027347;28;20738;-78
2021/12/15 07:58:22;;;;;;;7.90;6.03;;;;;;;2.97;94.48;92779.13;5026263;28;20553;-78
2021/12/15 08:00:50;;;;;;;7.97;7.17;;;;;;;3.10;94.55;92793.13;5027900;28;20656;-77
2021/12/15 08:03:18;;;;;;;7.53;6.77;;;;;;;3.56;94.81;92853.28;5027396;28;20524;-77
2021/12/15 08:05:49;;;;;;;10.00;9.03;;;;;;;3.61;96.68;92834.06;5026373;28;20589;-77
2021/12/15 08:08:17;;;;;;;6.20;5.80;;;;;;;3.24;97.42;92787.13;5028975;28;20635;-77
2021/12/15 08:10:45;;;;;;;4.23;3.93;;;;;;;3.49;95.24;92849.22;5031735;28;20566;-77
2021/12/15 08:13:15;;;;;;;11.10;7.03;;;;;;;3.60;95.72;92853.25;5019439;28;20568;-76
2021/12/15 08:15:43;;;;;;;6.20;5.37;;;;;;;3.20;95.02;92793.00;5031495;28;20701;-78
2021/12/15 08:18:10;;;;;;;7.07;6.47;;;;;;;3.36;94.33;92817.75;5029467;28;20625;-76
2021/12/15 08:20:38;;;;;;;5.13;4.60;;;;;;;3.49;93.19;92831.75;5031337;28;20576;-77
2021/12/15 08:23:07;;;;;;;11.03;8.47;;;;;;;3.77;93.46;92865.53;5032250;28;20468;-78
2021/12/15 08:25:35;;;;;;;7.27;6.67;;;;;;;3.89;94.76;92869.53;5032253;28;20570;-75
2021/12/15 08:28:05;;;;;;;15.97;12.67;;;;;;;3.92;94.42;92869.47;5029478;28;20487;-77
2021/12/15 08:30:33;;;;;;;10.97;10.03;;;;;;;3.98;94.45;92859.38;5034182;28;20276;-77
2021/12/15 08:33:05;;;;;;;8.63;7.97;;;;;;;3.98;94.70;92862.72;5031982;28;20592;-77
2021/12/15 08:35:36;;;;;;;5.07;4.67;;;;;;;3.78;95.69;92827.16;5035493;28;20609;-77
2021/12/15 08:38:04;;;;;;;4.90;4.50;;;;;;;3.97;94.97;92865.22;5030221;28;20554;-76
2021/12/15 08:40:33;;;;;;;6.63;6.17;;;;;;;3.86;95.84;92850.38;5028912;28;20636;-77
2021/12/15 08:43:01;;;;;;;26.23;19.30;;;;;;;3.94;95.18;92858.63;5035157;28;20482;-78
2021/12/15 08:45:29;;;;;;;17.10;14.93;;;;;;;4.01;95.40;92864.34;5034192;28;20459;-77
2021/12/15 08:47:58;;;;;;;11.73;11.07;;;;;;;4.06;95.61;92863.41;5030537;28;20591;-78
2021/12/15 08:50:29;;;;;;;8.63;7.97;;;;;;;4.06;96.43;92847.59;5031424;28;20572;-77
2021/12/15 08:52:56;;;;;;;8.07;6.20;;;;;;;3.96;95.91;92826.09;5032153;28;20611;-78
2021/12/15 08:55:25;;;;;;;8.70;6.33;;;;;;;4.04;96.49;92851.81;5031700;28;20492;-77
2021/12/15 08:57:56;;;;;;;9.30;5.97;;;;;;;4.04;96.38;92851.81;5030090;28;20457;-76
2021/12/15 09:00:26;;;;;;;10.37;9.37;;;;;;;3.91;96.29;92821.16;5033497;28;20551;-77
2021/12/15 09:02:55;;;;;;;7.03;6.43;;;;;;;3.94;95.48;92828.63;5034626;28;20517;-77
2021/12/15 09:05:23;;;;;;;4.53;4.37;;;;;;;4.18;94.00;92858.25;5027935;28;20582;-76
2021/12/15 09:07:52;;;;;;;6.07;5.10;;;;;;;4.23;94.10;92845.66;5027296;28;20578;-77
2021/12/15 09:10:21;;;;;;;12.87;6.10;;;;;;;4.32;93.37;92857.22;5031321;28;20467;-75
2021/12/15 09:12:49;;;;;;;7.13;6.47;;;;;;;4.26;94.72;92850.63;5028502;28;20468;-76
2021/12/15 09:15:18;;;;;;;8.77;6.80;;;;;;;4.32;94.91;92838.03;5032281;28;20604;-75
2021/12/15 09:17:46;;;;;;;12.63;8.63;;;;;;;4.29;96.27;92838.06;5028988;28;20562;-76
2021/12/15 09:20:20;;;;;;;6.63;6.33;;;;;;;4.19;97.05;92809.06;5027969;28;20550;-77
2021/12/15 09:22:47;;;;;;;12.00;9.10;;;;;;;4.26;96.82;92818.13;5030622;28;20197;-75
2021/12/15 09:25:15;;;;;;;7.23;6.77;;;;;;;4.27;96.41;92833.97;5031895;28;20260;-76
2021/12/15 09:27:46;;;;;;;7.13;6.53;;;;;;;4.37;96.30;92830.47;5026662;28;20555;-77
2021/12/15 09:30:20;;;;;;;7.47;7.07;;;;;;;4.48;94.85;92836.94;5024651;28;20558;-76
2021/12/15 09:32:50;;;;;;;7.63;7.03;;;;;;;4.45;95.45;92818.66;5021682;28;20640;-76
2021/12/15 09:35:19;;;;;;;4.87;4.67;;;;;;;4.51;95.09;92813.53;5027077;28;20555;-76
2021/12/15 09:37:48;;;;;;;9.60;7.63;;;;;;;4.65;94.83;92826.66;5034951;28;20549;-76
2021/12/15 09:40:17;;;;;;;10.27;7.63;;;;;;;4.65;94.29;92818.31;5029702;28;20582;-76
2021/12/15 09:42:46;;;;;;;9.47;8.53;;;;;;;4.46;94.39;92810.28;5028768;28;20559;-75
2021/12/15 09:45:26;;;;;;;7.30;6.67;;;;;;;4.46;94.49;92827.78;5024131;28;20197;-75
2021/12/15 09:56:18;;;;;;;6.87;6.47;;;;;;;4.34;95.09;92813.03;5029087;28;20566;-76
2021/12/15 10:02:27;;;;;;;6.23;5.87;;;;;;;4.69;95.36;92823.22;5003886;28;20480;-76
2021/12/15 10:05:07;;;;;;;4.23;4.03;;;;;;;4.74;94.84;92813.97;5019063;28;20574;-74
2021/12/15 10:10:44;;;;;;;3.07;2.97;;;;;;;4.66;94.36;92824.97;5028584;28;20589;-76
2021/12/15 10:18:52;;;;;;;4.80;4.40;;;;;;;4.84;93.28;92822.97;5028708;28;20567;-77
2021/12/15 10:21:27;;;;;;;4.27;4.07;;;;;;;4.80;93.91;92806.34;5026464;28;20580;-77
2021/12/15 10:23:57;;;;;;;3.47;3.27;;;;;;;4.79;92.85;92817.22;5026812;28;20460;-77
2021/12/15 10:26:25;;;;;;;3.47;3.37;;;;;;;4.82;93.30;92834.69;5030413;28;20517;-78
2021/12/15 10:28:53;;;;;;;4.77;4.57;;;;;;;4.74;92.96;92798.94;5028450;28;20599;-77
2021/12/15 10:31:24;;;;;;;6.90;3.80;;;;;;;4.98;93.14;92822.72;5026046;28;20197;-75
2021/12/15 10:33:54;;;;;;;4.87;4.60;;;;;;;4.95;93.13;92808.59;5026815;28;20587;-76
2021/12/15 10:36:25;;;;;;;3.70;3.53;;;;;;;4.97;93.66;92826.06;5032142;28;20517;-77
2021/12/15 10:38:55;;;;;;;7.67;7.00;;;;;;;4.78;94.15;92818.09;5031048;28;20649;-77
2021/12/15 10:41:24;;;;;;;6.83;6.13;;;;;;;4.63;94.77;92815.84;5034736;28;20209;-77
2021/12/15 10:43:56;;;;;;;5.17;4.97;;;;;;;4.57;94.30;92790.91;5027282;28;20575;-77
2021/12/15 10:46:28;;;;;;;10.27;6.97;;;;;;;4.70;95.73;92806.53;5031909;28;20554;-77
2021/12/15 10:48:57;;;;;;;30.07;17.27;;;;;;;4.66;96.38;92800.78;5029409;28;20589;-76
2021/12/15 10:51:30;;;;;;;7.50;7.10;;;;;;;4.51;96.86;92783.53;5026856;28;20577;-77
2021/12/15 10:54:01;;;;;;;5.60;5.20;;;;;;;4.27;96.42;92738.94;5027591;28;20658;-77
2021/12/15 10:56:32;;;;;;;9.13;6.10;;;;;;;4.54;95.97;92775.97;5026972;28;20613;-77
2021/12/15 10:59:02;;;;;;;9.87;5.60;;;;;;;4.76;96.01;92799.75;5030650;28;20578;-75
2021/12/15 11:01:52;;;;;;;5.10;4.70;;;;;;;4.27;95.11;92728.94;5026514;28;20582;-75
2021/12/15 11:04:42;;;;;;;6.53;5.93;;;;;;;4.74;95.11;92806.47;5030315;28;20576;-76
2021/12/15 11:07:18;;;;;;;5.73;5.23;;;;;;;4.55;95.00;92783.47;5028336;28;20485;-76
2021/12/15 11:09:48;;;;;;;8.20;7.60;;;;;;;4.68;94.17;92806.56;5026561;28;20565;-77
2021/12/15 11:12:19;;;;;;;11.27;8.50;;;;;;;4.71;95.02;92790.69;5028569;28;20578;-76
2021/12/15 11:14:49;;;;;;;17.87;9.70;;;;;;;4.64;94.94;92787.47;5028426;28;20253;-77
2021/12/15 11:17:19;;;;;;;16.00;9.47;;;;;;;4.73;94.61;92804.81;5027735;28;20213;-77
2021/12/15 11:19:55;;;;;;;9.10;6.77;;;;;;;4.64;95.41;92799.97;5029907;28;20526;-77
2021/12/15 11:22:46;;;;;;;15.37;7.33;;;;;;;4.68;94.84;92803.25;5028059;28;20198;-75
2021/12/15 11:25:19;;;;;;;8.80;7.97;;;;;;;4.45;96.07;92779.44;5025466;28;20476;-75
2021/12/15 11:27:50;;;;;;;8.50;7.67;;;;;;;4.33;96.47;92774.69;5029195;28;20198;-77
2021/12/15 11:30:25;;;;;;;10.20;8.30;;;;;;;4.37;95.83;92761.25;5026567;28;20542;-78
2021/12/15 11:32:55;;;;;;;21.50;12.97;;;;;;;4.60;96.25;92790.88;5026614;28;20597;-77
2021/12/15 11:35:25;;;;;;;13.10;11.93;;;;;;;4.66;96.42;92797.47;5030650;28;20472;-77
2021/12/15 11:37:58;;;;;;;15.87;9.20;;;;;;;4.39;96.76;92762.06;5031420;28;20584;-76
2021/12/15 11:40:36;;;;;;;10.83;9.63;;;;;;;4.45;97.95;92779.44;5027130;28;20542;-77
2021/12/15 11:43:06;;;;;;;14.20;10.37;;;;;;;4.45;97.71;92771.94;5028601;28;20193;-77
2021/12/15 11:45:36;;;;;;;12.67;11.53;;;;;;;4.31;97.20;92753.88;5027469;28;20671;-79
2021/12/15 11:48:20;;;;;;;7.63;7.00;;;;;;;4.40;96.97;92772.88;5029463;28;20577;-77
2021/12/15 11:50:51;;;;;;;13.80;9.03;;;;;;;4.54;97.18;92785.97;5026391;28;20578;-77
2021/12/15 11:53:33;;;;;;;10.07;9.13;;;;;;;4.51;96.84;92766.84;5027052;28;20558;-78
2021/12/15 11:56:19;;;;;;;7.87;6.90;;;;;;;4.57;96.57;92784.25;5026823;28;20609;-77
2021/12/15 11:58:48;;;;;;;15.27;6.97;;;;;;;4.58;97.46;92793.41;5032606;28;20581;-77
2021/12/15 12:01:47;;;;;;;7.67;6.80;;;;;;;4.55;97.84;92777.63;5031264;28;20554;-77
2021/12/15 12:04:27;;;;;;;7.47;7.00;;;;;;;4.41;98.33;92770.34;5030179;28;20677;-76
2021/12/15 12:07:10;;;;;;;7.80;7.30;;;;;;;4.58;98.03;92778.38;5031161;28;20463;-77
2021/12/15 12:09:40;;;;;;;6.80;6.17;;;;;;;4.59;98.29;92794.22;5036714;28;20557;-77
2021/12/15 12:12:09;;;;;;;5.47;5.07;;;;;;;4.58;97.39;92797.56;5035667;28;20441;-78
2021/12/15 12:14:42;;;;;;;6.53;5.87;;;;;;;4.22;97.74;92736.53;5031677;28;20652;-78
2021/12/15 12:17:13;;;;;;;4.43;4.23;;;;;;;4.56;97.81;92790.09;5033882;28;20652;-75
2021/12/15 12:19:44;;;;;;;3.90;3.53;;;;;;;4.58;96.57;92797.56;5030493;28;20232;-75
2021/12/15 12:22:12;;;;;;;4.80;4.50;;;;;;;4.41;97.00;92769.53;5032989;28;20493;-76
2021/12/15 12:24:45;;;;;;;16.27;11.43;;;;;;;4.48;97.76;92776.06;5032197;28;20285;-75
2021/12/15 12:27:13;;;;;;;6.00;5.67;;;;;;;4.43;97.50;92782.84;5034482;28;20609;-74
2021/12/15 12:29:41;;;;;;;5.43;5.20;;;;;;;4.41;97.92;92782.03;5031696;28;20487;-74
2021/12/15 12:32:09;;;;;;;16.07;10.13;;;;;;;4.46;97.86;92788.59;5032993;28;20492;-73
2021/12/15 12:34:36;;;;;;;7.63;7.00;;;;;;;4.44;98.42;92782.81;5032298;28;20581;-73
2021/12/15 12:37:04;;;;;;;22.13;13.80;;;;;;;4.42;98.30;92786.19;5033734;28;20577;-73
2021/12/15 12:39:34;;;;;;;22.70;13.97;;;;;;;4.35;99.22;92782.13;5034965;28;20585;-72
2021/12/15 12:42:04;;;;;;;10.63;7.23;;;;;;;4.37;99.75;92790.44;5032590;28;20694;-73